Time;durP1;ratioP1;P1;durP2;ratioP2;P2;SDS_P1;SDS_P2;PMS_P1;PMS_P2;Temp;Humidity;BMP_temperature;BMP_pressure;BME280_temperature;BME280_humidity;BME280_pressure;Samples;Min_cycle;Max_cycle;Signal;HPM_P1;HPM_P2
2023/03/21 00:01:29;;;;;;;10.48;5.40;;;;;;;-145.63;100.00;61273.97;5022078;28;20092;-64
2023/03/21 00:03:54;;;;;;;13.18;5.50;;;;;;;-145.63;100.00;61273.97;5041515;28;20025;-64
2023/03/21 00:06:21;;;;;;;6.60;4.85;;;;;;;-145.63;100.00;61273.97;5029806;28;20338;-65
2023/03/21 00:08:47;;;;;;;10.80;5.13;;;;;;;-145.63;100.00;61273.97;5032409;28;20326;-65
2023/03/21 00:11:13;;;;;;;10.82;5.38;;;;;;;-145.63;100.00;61273.97;5038464;28;20036;-65
2023/03/21 00:13:41;;;;;;;10.55;5.25;;;;;;;-145.63;100.00;61273.97;5022306;28;20037;-65
2023/03/21 00:16:08;;;;;;;7.10;4.88;;;;;;;-145.63;100.00;61273.97;5002543;28;20030;-65
2023/03/21 00:18:40;;;;;;;7.90;4.97;;;;;;;-145.63;100.00;61273.97;5018822;28;20022;-65
2023/03/21 00:21:07;;;;;;;7.05;4.68;;;;;;;-145.63;100.00;61273.97;5022544;28;20037;-63
2023/03/21 00:23:33;;;;;;;7.97;4.65;;;;;;;-145.63;100.00;61273.97;5023203;28;20088;-65
2023/03/21 00:26:00;;;;;;;5.43;4.53;;;;;;;-145.63;100.00;61273.97;5020716;28;20303;-65
2023/03/21 00:28:26;;;;;;;6.85;4.65;;;;;;;-145.63;100.00;61273.97;5018464;28;20085;-64
2023/03/21 00:30:59;;;;;;;9.15;5.38;;;;;;;-145.63;100.00;61273.97;5038147;28;20044;-65
2023/03/21 00:33:26;;;;;;;5.97;4.40;;;;;;;-145.63;100.00;61273.97;5027744;28;20310;-64
2023/03/21 00:35:52;;;;;;;7.13;5.38;;;;;;;-145.63;100.00;61273.97;5013312;28;20054;-65
2023/03/21 00:38:19;;;;;;;7.00;4.85;;;;;;;-145.63;100.00;61273.97;5007908;28;20353;-65
2023/03/21 00:40:44;;;;;;;8.00;4.80;;;;;;;-145.63;100.00;61273.97;5022031;28;20143;-65
2023/03/21 00:43:16;;;;;;;7.85;4.97;;;;;;;-145.63;100.00;61273.97;5022660;28;20029;-65
2023/03/21 00:45:42;;;;;;;;;;;;;;;-145.63;100.00;61273.97;5007592;28;20093;-65
2023/03/21 00:48:08;;;;;;;6.25;4.68;;;;;;;-145.63;100.00;61273.97;5014510;28;19920;-64
2023/03/21 00:50:35;;;;;;;10.50;5.45;;;;;;;-145.63;100.00;61273.97;5016328;28;20023;-65
2023/03/21 00:53:00;;;;;;;6.47;5.07;;;;;;;-145.63;100.00;61273.97;5004569;28;20049;-64
2023/03/21 00:55:26;;;;;;;8.18;4.80;;;;;;;-145.63;100.00;61273.97;5022978;28;20045;-65
2023/03/21 00:57:51;;;;;;;8.55;5.35;;;;;;;-145.63;100.00;61273.97;5023029;28;20064;-64
2023/03/21 01:00:18;;;;;;;7.57;4.97;;;;;;;-145.63;100.00;61273.97;5022071;28;20034;-64
2023/03/21 01:02:55;;;;;;;8.75;5.50;;;;;;;-145.63;100.00;61273.97;5015150;28;20038;-64
2023/03/21 01:08:12;;;;;;;6.47;4.25;;;;;;;-145.63;100.00;61273.97;5026022;28;20033;-64
2023/03/21 01:10:43;;;;;;;8.35;4.65;;;;;;;-145.63;100.00;61273.97;5042020;28;20097;-65
2023/03/21 01:13:10;;;;;;;5.22;4.30;;;;;;;-145.63;100.00;61273.97;5042343;28;20089;-65
2023/03/21 01:15:42;;;;;;;11.25;4.90;;;;;;;-145.63;100.00;61273.97;5027468;28;20072;-65
2023/03/21 01:18:08;;;;;;;14.48;5.15;;;;;;;-145.63;100.00;61273.97;5011906;28;20022;-65
2023/03/21 01:20:33;;;;;;;7.70;4.82;;;;;;;-145.63;100.00;61273.97;5022056;28;20116;-64
2023/03/21 01:22:59;;;;;;;10.98;5.30;;;;;;;-145.63;100.00;61273.97;5020797;28;20235;-64
2023/03/21 01:25:25;;;;;;;6.07;4.10;;;;;;;-145.63;100.00;61273.97;5002566;28;20111;-65
2023/03/21 01:27:51;;;;;;;11.88;4.60;;;;;;;-145.63;100.00;61273.97;5019989;28;20145;-65
2023/03/21 01:30:16;;;;;;;6.45;4.88;;;;;;;-145.63;100.00;61273.97;5010405;28;20168;-64
2023/03/21 01:32:42;;;;;;;8.50;4.75;;;;;;;-145.63;100.00;61273.97;5032595;28;20107;-64
2023/03/21 01:35:08;;;;;;;7.68;4.53;;;;;;;-145.63;100.00;61273.97;5019840;28;20080;-64
2023/03/21 01:37:34;;;;;;;9.77;4.60;;;;;;;-145.63;100.00;61273.97;5003022;28;20199;-65
2023/03/21 01:39:59;;;;;;;7.05;4.45;;;;;;;-145.63;100.00;61273.97;5017699;28;20060;-65
2023/03/21 01:42:25;;;;;;;9.27;5.00;;;;;;;-145.63;100.00;61273.97;5027561;28;20161;-64
2023/03/21 01:45:03;;;;;;;7.72;4.32;;;;;;;-145.63;100.00;61273.97;5033742;28;20033;-64
2023/03/21 01:47:29;;;;;;;8.63;4.30;;;;;;;-145.63;100.00;61273.97;5016877;28;20087;-64
2023/03/21 01:50:02;;;;;;;6.25;4.38;;;;;;;-145.63;100.00;61273.97;5003618;28;20038;-64
2023/03/21 01:52:33;;;;;;;7.20;4.72;;;;;;;-145.63;100.00;61273.97;5024818;28;20199;-64
2023/03/21 01:55:01;;;;;;;8.73;4.80;;;;;;;-145.63;100.00;61273.97;5007740;28;20062;-64
2023/03/21 01:57:32;;;;;;;5.97;4.95;;;;;;;-145.63;100.00;61273.97;5019090;28;20030;-64
2023/03/21 02:00:10;;;;;;;11.70;4.80;;;;;;;-145.63;100.00;61273.97;5025856;28;20045;-65
2023/03/21 02:02:49;;;;;;;10.25;4.38;;;;;;;-145.63;100.00;61273.97;5019140;28;20030;-65
2023/03/21 02:05:17;;;;;;;9.90;3.90;;;;;;;-145.63;100.00;61273.97;5009518;28;20069;-64
2023/03/21 02:07:43;;;;;;;6.78;4.20;;;;;;;-145.63;100.00;61273.97;5025031;28;20340;-65
2023/03/21 02:10:12;;;;;;;6.40;3.90;;;;;;;-145.63;100.00;61273.97;5042865;28;20021;-64
2023/03/21 02:12:38;;;;;;;6.53;4.35;;;;;;;-145.63;100.00;61273.97;5030641;28;20033;-64
2023/03/21 02:15:06;;;;;;;7.00;4.35;;;;;;;-145.63;100.00;61273.97;5015080;28;20045;-63
2023/03/21 02:18:05;;;;;;;15.18;4.50;;;;;;;-145.63;100.00;61273.97;5013144;28;20045;-64
2023/03/21 02:20:58;;;;;;;6.97;4.68;;;;;;;-145.63;100.00;61273.97;5025417;28;20097;-64
2023/03/21 02:23:46;;;;;;;10.13;5.13;;;;;;;-145.63;100.00;61273.97;5014194;28;20033;-63
2023/03/21 02:26:35;;;;;;;7.30;4.97;;;;;;;-145.63;100.00;61273.97;5044343;28;20049;-64
2023/03/21 02:29:14;;;;;;;5.95;4.18;;;;;;;-145.63;100.00;61273.97;5042608;28;20322;-65
2023/03/21 02:32:05;;;;;;;8.38;4.90;;;;;;;-145.63;100.00;61273.97;5034980;28;20034;-65
2023/03/21 02:34:36;;;;;;;7.43;5.18;;;;;;;-145.63;100.00;61273.97;5005584;28;20168;-65
2023/03/21 02:37:20;;;;;;;8.98;4.70;;;;;;;-145.63;100.00;61273.97;5022852;28;20037;-65
2023/03/21 02:39:54;;;;;;;6.25;4.25;;;;;;;-145.63;100.00;61273.97;5009116;28;20058;-65
2023/03/21 02:42:27;;;;;;;8.57;4.70;;;;;;;-145.63;100.00;61273.97;5022207;28;20199;-65
2023/03/21 02:45:00;;;;;;;9.20;4.70;;;;;;;-145.63;100.00;61273.97;5016808;28;20327;-65
2023/03/21 02:47:41;;;;;;;7.97;4.32;;;;;;;-145.63;100.00;61273.97;5009765;28;20034;-65
2023/03/21 02:50:12;;;;;;;7.72;4.20;;;;;;;-145.63;100.00;61273.97;5022336;28;20103;-65
2023/03/21 02:52:40;;;;;;;8.75;4.30;;;;;;;-145.63;100.00;61273.97;5005392;28;20030;-65
2023/03/21 02:55:17;;;;;;;9.45;5.90;;;;;;;-145.63;100.00;61273.97;5023381;28;20037;-65
2023/03/21 02:57:47;;;;;;;10.57;5.35;;;;;;;-145.63;100.00;61273.97;5007061;28;20037;-64
2023/03/21 03:00:17;;;;;;;10.82;5.07;;;;;;;-145.63;100.00;61273.97;5022892;28;20037;-65
2023/03/21 03:02:44;;;;;;;9.02;4.32;;;;;;;-145.63;100.00;61273.97;5017079;28;20037;-65
2023/03/21 03:05:19;;;;;;;8.27;4.90;;;;;;;-145.63;100.00;61273.97;5006516;28;20022;-64
2023/03/21 03:08:26;;;;;;;7.72;4.75;;;;;;;-145.63;100.00;61273.97;5023033;28;20293;-65
2023/03/21 03:10:57;;;;;;;7.80;4.95;;;;;;;-145.63;100.00;61273.97;5004670;28;20034;-64
2023/03/21 03:13:29;;;;;;;6.78;4.47;;;;;;;-145.63;100.00;61273.97;5004859;28;20026;-66
2023/03/21 03:16:06;;;;;;;6.72;4.25;;;;;;;-145.63;100.00;61273.97;5037370;28;20045;-64
2023/03/21 03:18:47;;;;;;;8.32;4.28;;;;;;;-145.63;100.00;61273.97;5030735;28;20042;-64
2023/03/21 03:21:29;;;;;;;6.95;4.35;;;;;;;-145.63;100.00;61273.97;5023403;28;20030;-65
2023/03/21 03:24:22;;;;;;;7.18;4.38;;;;;;;-145.63;100.00;61273.97;5023919;28;20030;-64
2023/03/21 03:27:14;;;;;;;7.43;4.25;;;;;;;-145.63;100.00;61273.97;5031346;28;20033;-65
2023/03/21 03:29:43;;;;;;;7.57;5.07;;;;;;;-145.63;100.00;61273.97;5037266;28;20053;-65
2023/03/21 03:32:23;;;;;;;7.03;5.00;;;;;;;-145.63;100.00;61273.97;5036029;28;20028;-65
2023/03/21 03:34:55;;;;;;;8.13;5.20;;;;;;;-145.63;100.00;61273.97;5024149;28;20037;-67
2023/03/21 03:37:27;;;;;;;9.93;4.78;;;;;;;-145.63;100.00;61273.97;5003269;28;20045;-64
2023/03/21 03:40:09;;;;;;;7.13;4.63;;;;;;;-145.63;100.00;61273.97;5020131;28;20330;-66
2023/03/21 03:42:36;;;;;;;;;;;;;;;-145.63;100.00;61273.97;5010344;28;20319;-65
2023/03/21 03:45:05;;;;;;;9.70;4.82;;;;;;;-145.63;100.00;61273.97;5012895;28;20109;-66
2023/03/21 03:47:49;;;;;;;9.98;4.47;;;;;;;-145.63;100.00;61273.97;5019107;28;20034;-66
2023/03/21 03:50:33;;;;;;;7.43;4.68;;;;;;;-145.63;100.00;61273.97;5024226;28;20077;-65
2023/03/21 03:53:21;;;;;;;7.60;4.53;;;;;;;-145.63;100.00;61273.97;5043079;28;20322;-66
2023/03/21 03:55:48;;;;;;;10.32;5.20;;;;;;;-145.63;100.00;61273.97;5023229;28;20315;-66
2023/03/21 03:58:19;;;;;;;9.18;5.25;;;;;;;-145.63;100.00;61273.97;5023378;28;20061;-67
2023/03/21 04:00:45;;;;;;;;;;;;;;;-145.63;100.00;61273.97;5026084;28;20253;-64
2023/03/21 04:03:11;;;;;;;7.13;4.85;;;;;;;-145.63;100.00;61273.97;5032630;28;19921;-64
2023/03/21 04:05:37;;;;;;;12.70;5.35;;;;;;;-145.63;100.00;61273.97;5018198;28;20223;-63
2023/03/21 04:08:02;;;;;;;7.50;5.15;;;;;;;-145.63;100.00;61273.97;5003004;28;20101;-64
2023/03/21 04:10:28;;;;;;;6.78;4.57;;;;;;;-145.63;100.00;61273.97;5023685;28;20029;-64
2023/03/21 04:12:54;;;;;;;11.27;5.00;;;;;;;-145.63;100.00;61273.97;5007398;28;20050;-64
2023/03/21 04:15:19;;;;;;;9.25;5.00;;;;;;;-145.63;100.00;61273.97;5025173;28;20329;-64
2023/03/21 04:17:45;;;;;;;11.00;5.07;;;;;;;-145.63;100.00;61273.97;5023738;28;20041;-64
2023/03/21 04:20:10;;;;;;;7.18;4.80;;;;;;;-145.63;100.00;61273.97;5023290;28;20029;-65
2023/03/21 04:22:36;;;;;;;7.20;4.82;;;;;;;-145.63;100.00;61273.97;5022929;28;20084;-64
2023/03/21 04:25:04;;;;;;;10.90;4.72;;;;;;;-145.63;100.00;61273.97;5022757;28;20036;-64
2023/03/21 04:27:31;;;;;;;7.68;5.28;;;;;;;-145.63;100.00;61273.97;5034609;28;20047;-65
2023/03/21 04:29:57;;;;;;;11.65;5.45;;;;;;;-145.63;100.00;61273.97;5034432;28;20258;-65
2023/03/21 04:32:25;;;;;;;8.80;5.13;;;;;;;-145.63;100.00;61273.97;5035683;28;20338;-66
2023/03/21 04:34:52;;;;;;;9.27;5.47;;;;;;;-145.63;100.00;61273.97;5023192;28;20041;-67
2023/03/21 04:37:22;;;;;;;9.63;4.90;;;;;;;-145.63;100.00;61273.97;5041221;28;20033;-68
2023/03/21 04:39:49;;;;;;;7.57;5.10;;;;;;;-145.63;100.00;61273.97;5028110;28;20034;-66
2023/03/21 04:42:19;;;;;;;10.10;5.28;;;;;;;-145.63;100.00;61273.97;5022143;28;20034;-68
2023/03/21 04:44:46;;;;;;;8.35;5.10;;;;;;;-145.63;100.00;61273.97;5028605;28;20332;-66
2023/03/21 04:47:14;;;;;;;7.80;5.47;;;;;;;-145.63;100.00;61273.97;5041734;28;20033;-65
2023/03/21 04:49:41;;;;;;;6.55;5.20;;;;;;;-145.63;100.00;61273.97;5041839;28;20033;-65
2023/03/21 04:52:06;;;;;;;10.52;6.13;;;;;;;-145.63;100.00;61273.97;5025004;28;20251;-66
2023/03/21 04:54:32;;;;;;;8.80;5.45;;;;;;;-145.63;100.00;61273.97;5022467;28;20102;-64
2023/03/21 04:56:58;;;;;;;8.45;5.28;;;;;;;-145.63;100.00;61273.97;5027090;28;20402;-65
2023/03/21 04:59:24;;;;;;;12.23;5.75;;;;;;;-145.63;100.00;61273.97;5022712;28;20064;-66
2023/03/21 05:01:50;;;;;;;12.23;6.22;;;;;;;-145.63;100.00;61273.97;5041860;28;20060;-66
2023/03/21 05:04:16;;;;;;;9.90;5.68;;;;;;;-145.63;100.00;61273.97;5042119;28;20037;-67
2023/03/21 05:06:43;;;;;;;8.30;5.80;;;;;;;-145.63;100.00;61273.97;5035336;28;20034;-66
2023/03/21 05:09:09;;;;;;;8.77;5.65;;;;;;;-145.63;100.00;61273.97;5034681;28;20021;-66
2023/03/21 05:11:37;;;;;;;9.90;5.68;;;;;;;-145.63;100.00;61273.97;5037624;28;20080;-67
2023/03/21 05:14:04;;;;;;;11.00;5.95;;;;;;;-145.63;100.00;61273.97;5027647;28;20035;-69
2023/03/21 05:16:29;;;;;;;8.57;5.93;;;;;;;-145.63;100.00;61273.97;5034977;28;20318;-66
2023/03/21 05:18:57;;;;;;;12.35;5.78;;;;;;;-145.63;100.00;61273.97;5026922;28;20030;-65
2023/03/21 05:21:24;;;;;;;9.77;5.85;;;;;;;-145.63;100.00;61273.97;5032702;28;20076;-67
2023/03/21 05:23:53;;;;;;;11.60;6.35;;;;;;;-145.63;100.00;61273.97;5022619;28;20025;-67
2023/03/21 05:26:23;;;;;;;11.25;6.22;;;;;;;-145.63;100.00;61273.97;5024941;28;20030;-67
2023/03/21 05:28:49;;;;;;;14.13;6.10;;;;;;;-145.63;100.00;61273.97;5045859;28;20025;-66
2023/03/21 05:31:16;;;;;;;8.45;6.15;;;;;;;-145.63;100.00;61273.97;5045865;28;20052;-67
2023/03/21 05:33:43;;;;;;;10.75;6.15;;;;;;;-145.63;100.00;61273.97;5045637;28;20075;-66
2023/03/21 05:36:09;;;;;;;9.95;5.72;;;;;;;-145.63;100.00;61273.97;5036178;28;20094;-65
2023/03/21 05:38:34;;;;;;;9.35;5.85;;;;;;;-145.63;100.00;61273.97;5030462;28;20032;-67
2023/03/21 05:41:00;;;;;;;10.48;5.25;;;;;;;-145.63;100.00;61273.97;5040006;28;20214;-66
2023/03/21 05:43:26;;;;;;;9.23;5.80;;;;;;;-145.63;100.00;61273.97;5042826;28;20037;-66
2023/03/21 05:45:51;;;;;;;9.20;5.70;;;;;;;-145.63;100.00;61273.97;5025149;28;20072;-65
2023/03/21 05:48:17;;;;;;;11.93;5.88;;;;;;;-145.63;100.00;61273.97;5014617;28;20250;-67
2023/03/21 05:50:43;;;;;;;11.63;5.88;;;;;;;-145.63;100.00;61273.97;5009865;28;20035;-66
2023/03/21 05:53:09;;;;;;;10.55;6.00;;;;;;;-145.63;100.00;61273.97;5026038;28;20025;-66
2023/03/21 05:55:35;;;;;;;10.40;5.53;;;;;;;-145.63;100.00;61273.97;5042894;28;20037;-67
2023/03/21 05:58:00;;;;;;;12.35;6.07;;;;;;;-145.63;100.00;61273.97;5025470;28;20048;-67
2023/03/21 06:00:26;;;;;;;9.65;6.10;;;;;;;-145.63;100.00;61273.97;5023926;28;20030;-65
2023/03/21 06:02:52;;;;;;;10.45;6.30;;;;;;;-145.63;100.00;61273.97;5031665;28;20052;-65
2023/03/21 06:05:17;;;;;;;8.43;5.65;;;;;;;-145.63;100.00;61273.97;5042808;28;20045;-67
2023/03/21 06:07:43;;;;;;;10.05;6.35;;;;;;;-145.63;100.00;61273.97;5025509;28;20376;-66
2023/03/21 06:10:09;;;;;;;39.60;21.95;;;;;;;-145.63;100.00;61273.97;5031142;28;20403;-66
2023/03/21 06:12:35;;;;;;;17.15;9.82;;;;;;;-145.63;100.00;61273.97;5025352;28;20040;-66
2023/03/21 06:15:04;;;;;;;11.48;6.65;;;;;;;-145.63;100.00;61273.97;5024742;28;20026;-67
2023/03/21 06:17:30;;;;;;;11.35;6.68;;;;;;;-145.63;100.00;61273.97;5021940;28;20034;-66
2023/03/21 06:19:56;;;;;;;15.95;6.63;;;;;;;-145.63;100.00;61273.97;5019559;28;20329;-65
2023/03/21 06:22:23;;;;;;;26.38;16.17;;;;;;;-145.63;100.00;61273.97;5025013;28;20033;-67
2023/03/21 06:24:48;;;;;;;10.95;7.10;;;;;;;-145.63;100.00;61273.97;5040341;28;20030;-66
2023/03/21 06:27:14;;;;;;;14.20;6.50;;;;;;;-145.63;100.00;61273.97;5024773;28;20029;-65
2023/03/21 06:29:40;;;;;;;17.90;7.35;;;;;;;-145.63;100.00;61273.97;5028452;28;20042;-65
2023/03/21 06:32:06;;;;;;;11.93;6.93;;;;;;;-145.63;100.00;61273.97;5038207;28;20033;-65
2023/03/21 06:34:32;;;;;;;10.68;7.63;;;;;;;-145.63;100.00;61273.97;5025357;28;20034;-66
2023/03/21 06:36:57;;;;;;;10.80;7.10;;;;;;;-145.63;100.00;61273.97;5009953;28;20080;-68
2023/03/21 06:39:23;;;;;;;13.68;7.40;;;;;;;-145.63;100.00;61273.97;5014247;28;20025;-67
2023/03/21 06:41:48;;;;;;;15.52;7.00;;;;;;;-145.63;100.00;61273.97;5024249;28;20022;-65
2023/03/21 06:44:14;;;;;;;14.18;7.78;;;;;;;-145.63;100.00;61273.97;5023146;28;20093;-66
2023/03/21 06:46:40;;;;;;;12.27;7.28;;;;;;;-145.63;100.00;61273.97;5005309;28;20045;-69
2023/03/21 06:49:05;;;;;;;14.80;8.20;;;;;;;-145.63;100.00;61273.97;5020194;28;20030;-66
2023/03/21 06:51:31;;;;;;;13.57;7.25;;;;;;;-145.63;100.00;61273.97;5016437;28;20203;-65
2023/03/21 06:53:56;;;;;;;14.00;8.15;;;;;;;-145.63;100.00;61273.97;5017842;28;20022;-66
2023/03/21 06:56:22;;;;;;;16.23;7.70;;;;;;;-145.63;100.00;61273.97;5031054;28;20057;-66
2023/03/21 06:58:48;;;;;;;15.98;7.63;;;;;;;-145.63;100.00;61273.97;5033587;28;20336;-67
2023/03/21 07:01:14;;;;;;;12.25;6.82;;;;;;;-145.63;100.00;61273.97;5034944;28;20097;-66
2023/03/21 07:03:40;;;;;;;14.48;7.53;;;;;;;-145.63;100.00;61273.97;5035124;28;20021;-66
2023/03/21 07:06:12;;;;;;;12.40;7.43;;;;;;;-145.63;100.00;61273.97;5033869;28;20097;-67
2023/03/21 07:08:38;;;;;;;11.30;6.75;;;;;;;-145.63;100.00;61273.97;5032371;28;20037;-68
2023/03/21 07:11:05;;;;;;;11.88;7.20;;;;;;;-145.63;100.00;61273.97;5033982;28;20022;-65
2023/03/21 07:13:30;;;;;;;14.68;7.47;;;;;;;-145.63;100.00;61273.97;5038150;28;20397;-66
2023/03/21 07:15:57;;;;;;;15.93;7.32;;;;;;;-145.63;100.00;61273.97;5031415;28;20040;-66
2023/03/21 07:18:22;;;;;;;9.65;7.13;;;;;;;-145.63;100.00;61273.97;5028632;28;20055;-67
2023/03/21 07:20:49;;;;;;;9.50;7.88;;;;;;;-145.63;100.00;61273.97;5024257;28;20081;-66
2023/03/21 07:23:17;;;;;;;15.90;7.85;;;;;;;-145.63;100.00;61273.97;5023959;28;20033;-66
2023/03/21 07:25:43;;;;;;;14.80;7.55;;;;;;;-145.63;100.00;61273.97;5023414;28;20337;-66
2023/03/21 07:28:09;;;;;;;11.55;7.68;;;;;;;-145.63;100.00;61273.97;5008576;28;20034;-67
2023/03/21 07:30:35;;;;;;;12.15;7.82;;;;;;;-145.63;100.00;61273.97;5012138;28;20056;-66
2023/03/21 07:33:01;;;;;;;14.50;8.57;;;;;;;-145.63;100.00;61273.97;5027568;28;20102;-66
2023/03/21 07:35:27;;;;;;;14.82;8.00;;;;;;;-145.63;100.00;61273.97;5008249;28;20258;-65
2023/03/21 07:37:52;;;;;;;11.10;7.82;;;;;;;-145.63;100.00;61273.97;5004917;28;20030;-66
2023/03/21 07:40:18;;;;;;;9.20;7.63;;;;;;;-145.63;100.00;61273.97;5021182;28;20213;-66
2023/03/21 07:42:44;;;;;;;15.07;8.23;;;;;;;-145.63;100.00;61273.97;5010704;28;20137;-65
2023/03/21 07:45:14;;;;;;;18.08;8.50;;;;;;;-145.63;100.00;61273.97;5011885;28;20226;-66
2023/03/21 07:47:39;;;;;;;13.60;7.70;;;;;;;-145.63;100.00;61273.97;5027191;28;20117;-66
2023/03/21 07:50:05;;;;;;;14.40;8.00;;;;;;;-145.63;100.00;61273.97;5041998;28;20025;-67
2023/03/21 07:52:31;;;;;;;16.08;8.55;;;;;;;-145.63;100.00;61273.97;5043154;28;20048;-67
2023/03/21 07:54:57;;;;;;;13.75;8.95;;;;;;;-145.63;100.00;61273.97;5028387;28;20025;-67
2023/03/21 07:57:22;;;;;;;16.27;7.65;;;;;;;-145.63;100.00;61273.97;5023782;28;20029;-68
2023/03/21 07:59:48;;;;;;;14.82;8.93;;;;;;;-145.63;100.00;61273.97;5032721;28;20108;-66
2023/03/21 08:02:15;;;;;;;12.60;8.57;;;;;;;-145.63;100.00;61273.97;5031367;28;20254;-65
2023/03/21 08:04:41;;;;;;;15.20;8.32;;;;;;;-145.63;100.00;61273.97;5032066;28;20026;-68
2023/03/21 08:07:07;;;;;;;21.88;9.05;;;;;;;-145.63;100.00;61273.97;5023392;28;20034;-67
2023/03/21 08:09:32;;;;;;;14.23;8.00;;;;;;;-145.63;100.00;61273.97;5023449;28;20093;-67
2023/03/21 08:11:58;;;;;;;17.67;9.05;;;;;;;-145.63;100.00;61273.97;5022481;28;20299;-66
2023/03/21 08:14:23;;;;;;;11.93;7.28;;;;;;;-145.63;100.00;61273.97;5023373;28;20061;-66
2023/03/21 08:16:49;;;;;;;8.90;6.53;;;;;;;-145.63;100.00;61273.97;5030251;28;20030;-67
2023/03/21 08:19:17;;;;;;;12.80;7.25;;;;;;;-145.63;100.00;61273.97;5022277;28;20093;-67
2023/03/21 08:21:42;;;;;;;17.45;8.38;;;;;;;-145.63;100.00;61273.97;5022494;28;20325;-67
2023/03/21 08:24:08;;;;;;;15.10;8.05;;;;;;;-145.63;100.00;61273.97;5026685;28;20029;-68
2023/03/21 08:26:33;;;;;;;14.02;8.57;;;;;;;-145.63;100.00;61273.97;5031696;28;20372;-67
2023/03/21 08:28:59;;;;;;;13.07;9.07;;;;;;;-145.63;100.00;61273.97;5022874;28;20097;-66
2023/03/21 08:31:25;;;;;;;11.40;8.07;;;;;;;-145.63;100.00;61273.97;5026123;28;20056;-65
2023/03/21 08:33:53;;;;;;;13.02;8.77;;;;;;;-145.63;100.00;61273.97;5030011;28;20026;-68
2023/03/21 08:36:20;;;;;;;12.93;8.23;;;;;;;-145.63;100.00;61273.97;5033138;28;20025;-65
2023/03/21 08:38:47;;;;;;;9.43;7.60;;;;;;;-145.63;100.00;61273.97;5031757;28;20101;-66
2023/03/21 08:41:14;;;;;;;10.18;8.25;;;;;;;-145.63;100.00;61273.97;5031836;28;20114;-66
2023/03/21 08:43:39;;;;;;;16.52;9.02;;;;;;;-145.63;100.00;61273.97;5031589;28;20045;-67
2023/03/21 08:46:05;;;;;;;11.57;8.05;;;;;;;-145.63;100.00;61273.97;5032081;28;20025;-66
2023/03/21 08:48:31;;;;;;;12.57;7.88;;;;;;;-145.63;100.00;61273.97;5032772;28;20025;-68
2023/03/21 08:50:59;;;;;;;11.73;7.30;;;;;;;-145.63;100.00;61273.97;5029976;28;20026;-66
2023/03/21 08:53:25;;;;;;;11.07;7.47;;;;;;;-145.63;100.00;61273.97;5028475;28;20033;-68
2023/03/21 08:55:51;;;;;;;13.50;7.75;;;;;;;-145.63;100.00;61273.97;5032403;28;20115;-67
2023/03/21 08:58:17;;;;;;;8.45;6.97;;;;;;;-145.63;100.00;61273.97;5033038;28;20050;-68
2023/03/21 09:00:42;;;;;;;10.57;7.15;;;;;;;-145.63;100.00;61273.97;5035028;28;20218;-66
2023/03/21 09:03:08;;;;;;;10.98;7.63;;;;;;;-145.63;100.00;61273.97;5038570;28;20056;-67
2023/03/21 09:05:35;;;;;;;9.93;7.03;;;;;;;-145.63;100.00;61273.97;5033802;28;20314;-68
2023/03/21 09:08:02;;;;;;;10.07;7.20;;;;;;;-145.63;100.00;61273.97;5035683;28;20033;-67
2023/03/21 09:10:28;;;;;;;12.77;7.82;;;;;;;-145.63;100.00;61273.97;5039045;28;20029;-67
2023/03/21 09:12:55;;;;;;;10.63;7.57;;;;;;;-145.63;100.00;61273.97;5038462;28;20025;-68
2023/03/21 09:15:23;;;;;;;13.13;8.00;;;;;;;-145.63;100.00;61273.97;5037136;28;20034;-67
2023/03/21 09:17:51;;;;;;;11.07;7.85;;;;;;;-145.63;100.00;61273.97;5034074;28;20269;-67
2023/03/21 09:20:21;;;;;;;13.25;7.75;;;;;;;-145.63;100.00;61273.97;5035365;28;20076;-66
2023/03/21 09:22:49;;;;;;;13.15;7.72;;;;;;;-145.63;100.00;61273.97;5036787;28;20155;-67
2023/03/21 09:25:15;;;;;;;11.70;8.52;;;;;;;-145.63;100.00;61273.97;5035606;28;20025;-65
2023/03/21 09:27:44;;;;;;;13.52;7.90;;;;;;;-145.63;100.00;61273.97;5035730;28;20030;-67
2023/03/21 09:30:18;;;;;;;12.10;8.25;;;;;;;-145.63;100.00;61273.97;5036766;28;20320;-66
2023/03/21 09:32:47;;;;;;;12.15;8.57;;;;;;;-145.63;100.00;61273.97;5035704;28;20042;-68
2023/03/21 09:35:15;;;;;;;12.50;8.30;;;;;;;-145.63;100.00;61273.97;5032913;28;20029;-67
2023/03/21 09:37:41;;;;;;;10.98;7.72;;;;;;;-145.63;100.00;61273.97;5034664;28;20029;-67
2023/03/21 09:40:25;;;;;;;13.82;9.10;;;;;;;-145.63;100.00;61273.97;5035796;28;20033;-66
2023/03/21 09:43:15;;;;;;;14.02;9.07;;;;;;;-145.63;100.00;61273.97;5019791;28;20076;-66
2023/03/21 09:45:59;;;;;;;14.15;8.57;;;;;;;-145.63;100.00;61273.97;5036546;28;20049;-67
2023/03/21 09:48:46;;;;;;;12.55;8.25;;;;;;;-145.63;100.00;61273.97;5034057;28;20057;-66
2023/03/21 09:51:16;;;;;;;12.73;8.95;;;;;;;-145.63;100.00;61273.97;5034651;28;20042;-66
2023/03/21 09:53:47;;;;;;;12.80;8.68;;;;;;;-145.63;100.00;61273.97;5036657;28;20147;-64
2023/03/21 09:56:14;;;;;;;9.93;7.60;;;;;;;-145.63;100.00;61273.97;5033486;28;20061;-66
2023/03/21 09:58:49;;;;;;;10.93;9.25;;;;;;;-145.63;100.00;61273.97;5034315;28;20202;-65
2023/03/21 10:01:34;;;;;;;14.85;8.93;;;;;;;-145.63;100.00;61273.97;5033408;28;20253;-66
2023/03/21 10:04:17;;;;;;;9.75;8.50;;;;;;;-145.63;100.00;61273.97;5030982;28;20026;-66
2023/03/21 10:06:47;;;;;;;12.13;9.00;;;;;;;-145.63;100.00;61273.97;5033079;28;20063;-65
2023/03/21 10:09:21;;;;;;;9.70;8.10;;;;;;;-145.63;100.00;61273.97;5033167;28;20089;-67
2023/03/21 10:11:52;;;;;;;9.68;8.10;;;;;;;-145.63;100.00;61273.97;5032449;28;20041;-67
2023/03/21 10:14:24;;;;;;;12.77;7.38;;;;;;;-145.63;100.00;61273.97;5043619;28;20057;-68
2023/03/21 10:17:20;;;;;;;9.45;8.00;;;;;;;-145.63;100.00;61273.97;5004825;28;20089;-67
2023/03/21 10:19:54;;;;;;;11.48;7.50;;;;;;;-145.63;100.00;61273.97;5023529;28;20026;-69
2023/03/21 10:22:20;;;;;;;13.30;7.50;;;;;;;-145.63;100.00;61273.97;5037715;28;20029;-68
2023/03/21 10:24:45;;;;;;;9.25;7.65;;;;;;;-145.63;100.00;61273.97;5033694;28;20038;-69
2023/03/21 10:27:12;;;;;;;9.15;6.70;;;;;;;-145.63;100.00;61273.97;5033024;28;20078;-69
2023/03/21 10:29:44;;;;;;;9.68;6.93;;;;;;;-145.63;100.00;61273.97;5035342;28;20056;-69
2023/03/21 10:32:14;;;;;;;7.93;6.97;;;;;;;-145.63;100.00;61273.97;5030237;28;20072;-68
2023/03/21 10:34:54;;;;;;;8.95;7.10;;;;;;;-145.63;100.00;61273.97;5031955;28;20038;-67
2023/03/21 10:37:21;;;;;;;10.18;6.93;;;;;;;-145.63;100.00;61273.97;5031434;28;20200;-68
2023/03/21 10:39:50;;;;;;;8.18;7.30;;;;;;;-145.63;100.00;61273.97;5033630;28;20032;-67
2023/03/21 10:42:23;;;;;;;7.63;6.70;;;;;;;-145.63;100.00;61273.97;5030901;28;20176;-66
2023/03/21 10:44:51;;;;;;;9.50;6.70;;;;;;;-145.63;100.00;61273.97;5032672;28;20361;-67
2023/03/21 10:47:23;;;;;;;9.80;6.63;;;;;;;-145.63;100.00;61273.97;5022922;28;20044;-67
2023/03/21 10:49:49;;;;;;;8.38;7.00;;;;;;;-145.63;100.00;61273.97;5003546;28;20041;-68
2023/03/21 10:52:19;;;;;;;8.45;6.38;;;;;;;-145.63;100.00;61273.97;5020645;28;20050;-67
2023/03/21 10:54:45;;;;;;;10.00;6.53;;;;;;;-145.63;100.00;61273.97;5029131;28;20036;-67
2023/03/21 10:57:29;;;;;;;8.55;6.88;;;;;;;-145.63;100.00;61273.97;4987399;28;1271265;-66
2023/03/21 11:00:00;;;;;;;7.45;6.15;;;;;;;-145.63;100.00;61273.97;5023776;28;20113;-67
2023/03/21 11:02:48;;;;;;;9.00;6.97;;;;;;;-145.63;100.00;61273.97;5024019;28;20068;-67
2023/03/21 11:05:32;;;;;;;7.07;6.38;;;;;;;-145.63;100.00;61273.97;5042803;28;20060;-69
2023/03/21 11:08:23;;;;;;;8.75;7.10;;;;;;;-145.63;100.00;61273.97;5021473;28;20040;-66
2023/03/21 11:11:14;;;;;;;11.13;7.57;;;;;;;-145.63;100.00;61273.97;5005316;28;20068;-67
2023/03/21 11:13:42;;;;;;;9.40;7.03;;;;;;;-145.63;100.00;61273.97;5006373;28;20041;-68
2023/03/21 11:16:22;;;;;;;8.65;6.95;;;;;;;-145.63;100.00;61273.97;5014704;28;20030;-67
2023/03/21 11:18:55;;;;;;;11.48;7.18;;;;;;;-145.63;100.00;61273.97;5020834;28;20128;-67
2023/03/21 11:21:26;;;;;;;8.38;6.93;;;;;;;-145.63;100.00;61273.97;5006350;28;20089;-66